createdAt,value
2023-03-31T00:00:53.470Z,7.97
2023-03-31T00:03:24.892Z,8.30
2023-03-31T00:05:58.304Z,7.25
2023-03-31T00:08:29.892Z,6.95
2023-03-31T00:11:00.748Z,6.90
2023-03-31T00:13:28.824Z,8.35
2023-03-31T00:16:01.559Z,8.75
2023-03-31T00:18:29.971Z,7.10
2023-03-31T00:21:08.103Z,7.10
2023-03-31T00:23:35.509Z,6.68
2023-03-31T00:26:02.825Z,7.57
2023-03-31T00:28:30.296Z,6.90
2023-03-31T00:31:01.150Z,6.45
2023-03-31T00:33:29.636Z,5.75
2023-03-31T00:35:57.838Z,5.65
2023-03-31T00:38:24.950Z,6.22
2023-03-31T00:40:53.842Z,5.30
2023-03-31T00:43:39.150Z,4.45
2023-03-31T00:46:15.487Z,4.10
2023-03-31T00:48:51.545Z,5.63
2023-03-31T00:51:22.284Z,5.65
2023-03-31T00:53:57.506Z,5.22
2023-03-31T00:56:24.896Z,6.15
2023-03-31T00:58:54.032Z,5.93
2023-03-31T01:01:24.697Z,6.93
2023-03-31T01:03:53.004Z,9.70
2023-03-31T01:06:20.195Z,9.85
2023-03-31T01:08:50.081Z,9.57
2023-03-31T01:11:22.049Z,9.80
2023-03-31T01:13:51.991Z,9.55
2023-03-31T01:16:19.163Z,9.10
2023-03-31T01:18:49.627Z,9.63
2023-03-31T01:21:38.507Z,9.95
2023-03-31T01:24:08.682Z,11.15
2023-03-31T01:26:53.728Z,10.95
2023-03-31T01:29:39.366Z,9.68
2023-03-31T01:32:24.995Z,9.70
2023-03-31T01:35:09.505Z,10.73
2023-03-31T01:37:42.360Z,9.07
2023-03-31T01:40:23.237Z,10.20
2023-03-31T01:43:16.389Z,10.35
2023-03-31T01:45:52.611Z,8.98
2023-03-31T01:48:30.099Z,9.77
2023-03-31T01:51:02.089Z,9.52
2023-03-31T01:54:18.595Z,9.15
2023-03-31T01:57:00.407Z,9.07
2023-03-31T01:59:34.391Z,9.25
2023-03-31T02:02:07.441Z,9.30
2023-03-31T02:04:42.323Z,8.82
2023-03-31T02:07:17.548Z,9.60
2023-03-31T02:09:50.312Z,10.38
2023-03-31T02:12:21.924Z,9.07
2023-03-31T02:14:52.567Z,12.02
2023-03-31T02:17:30.165Z,10.50
2023-03-31T02:20:01.654Z,10.65
2023-03-31T02:22:34.073Z,11.00
2023-03-31T02:25:03.100Z,10.30
2023-03-31T02:27:37.487Z,11.23
2023-03-31T02:30:06.788Z,10.30
2023-03-31T02:32:39.732Z,9.93
2023-03-31T02:35:10.240Z,13.27
2023-03-31T02:37:39.186Z,13.60
2023-03-31T02:40:10.424Z,13.93
2023-03-31T02:42:39.560Z,12.15
2023-03-31T02:45:27.785Z,10.98
2023-03-31T02:47:55.597Z,13.80
2023-03-31T02:50:31.576Z,12.88
2023-03-31T02:53:29.419Z,12.25
2023-03-31T02:56:18.487Z,13.30
2023-03-31T02:59:06.665Z,13.05
2023-03-31T03:01:55.003Z,12.25
2023-03-31T03:04:41.680Z,13.20
2023-03-31T03:07:24.058Z,13.10
2023-03-31T03:10:12.310Z,13.98
2023-03-31T03:13:12.350Z,14.63
2023-03-31T03:15:46.242Z,14.73
2023-03-31T03:18:14.333Z,16.98
2023-03-31T03:20:49.146Z,14.90
2023-03-31T03:23:17.890Z,15.85
2023-03-31T03:25:46.078Z,16.40
2023-03-31T03:28:13.182Z,15.35
2023-03-31T03:30:40.452Z,15.13
2023-03-31T03:33:07.635Z,13.93
2023-03-31T03:35:34.980Z,14.30
2023-03-31T03:38:02.311Z,14.73
2023-03-31T03:40:29.418Z,12.98
2023-03-31T03:42:56.515Z,12.02
2023-03-31T03:45:23.602Z,11.80
2023-03-31T03:47:50.701Z,11.55
2023-03-31T03:50:17.915Z,10.13
2023-03-31T03:52:45.114Z,10.25
2023-03-31T03:55:12.327Z,9.93
2023-03-31T03:57:39.440Z,9.85
2023-03-31T04:00:12.176Z,9.77
2023-03-31T04:02:40.358Z,10.27
2023-03-31T04:05:07.992Z,9.55
2023-03-31T04:07:35.158Z,9.60
2023-03-31T04:10:02.265Z,9.27
2023-03-31T04:12:29.403Z,8.95
2023-03-31T04:14:56.527Z,8.48
2023-03-31T04:17:32.544Z,9.00
2023-03-31T04:20:02.214Z,9.93
2023-03-31T04:22:35.274Z,8.57
2023-03-31T04:25:04.915Z,9.13
2023-03-31T04:27:33.737Z,8.13
2023-03-31T04:30:00.873Z,10.13
2023-03-31T04:32:28.423Z,9.75
2023-03-31T04:35:03.314Z,9.00
2023-03-31T04:37:34.932Z,8.35
2023-03-31T04:40:08.548Z,8.15
2023-03-31T04:42:36.127Z,8.38
2023-03-31T04:45:03.976Z,7.57
2023-03-31T04:47:31.316Z,7.45
2023-03-31T04:49:58.491Z,7.22
2023-03-31T04:52:25.765Z,7.10
2023-03-31T04:54:52.835Z,7.20
2023-03-31T04:57:20.021Z,7.25
2023-03-31T04:59:47.370Z,6.88
2023-03-31T05:02:16.015Z,7.03
2023-03-31T05:04:43.131Z,7.40
2023-03-31T05:07:10.669Z,7.03
2023-03-31T05:09:37.766Z,7.75
2023-03-31T05:12:05.017Z,6.40
2023-03-31T05:14:32.099Z,5.90
2023-03-31T05:16:59.474Z,6.38
2023-03-31T05:19:26.812Z,6.78
2023-03-31T05:21:53.933Z,5.70
2023-03-31T05:24:21.080Z,6.30
2023-03-31T05:26:52.589Z,6.93
2023-03-31T05:29:20.612Z,6.18
2023-03-31T05:31:48.136Z,6.03
2023-03-31T05:34:16.250Z,6.25
2023-03-31T05:36:43.531Z,6.60
2023-03-31T05:39:10.727Z,5.97
2023-03-31T05:41:37.799Z,5.80
2023-03-31T05:44:05.077Z,5.93
2023-03-31T05:46:32.354Z,5.95
2023-03-31T05:48:59.516Z,4.90
2023-03-31T05:51:26.681Z,5.15
2023-03-31T05:53:53.808Z,6.25
2023-03-31T05:56:22.166Z,5.10
2023-03-31T05:58:49.324Z,6.07
2023-03-31T06:01:21.220Z,5.63
2023-03-31T06:03:48.941Z,6.00
2023-03-31T06:06:19.449Z,5.47
2023-03-31T06:08:47.847Z,5.35
2023-03-31T06:11:19.331Z,5.10
2023-03-31T06:13:47.023Z,7.05
2023-03-31T06:16:15.573Z,5.20
2023-03-31T06:18:43.086Z,4.47
2023-03-31T06:21:16.282Z,4.55
2023-03-31T06:23:44.469Z,4.20
2023-03-31T06:26:18.945Z,3.97
2023-03-31T06:28:46.852Z,4.15
2023-03-31T06:31:19.914Z,3.60
2023-03-31T06:33:48.135Z,3.83
2023-03-31T06:36:17.611Z,5.25
2023-03-31T06:38:45.642Z,3.67
2023-03-31T06:41:15.231Z,4.57
2023-03-31T06:43:42.709Z,5.53
2023-03-31T06:46:10.444Z,3.35
2023-03-31T06:48:37.781Z,2.97
2023-03-31T06:51:06.638Z,3.13
2023-03-31T06:53:34.333Z,3.60
2023-03-31T06:56:01.612Z,4.47
2023-03-31T06:58:31.441Z,3.38
2023-03-31T07:00:59.100Z,3.45
2023-03-31T07:03:26.369Z,4.10
2023-03-31T07:05:54.983Z,3.70
2023-03-31T07:08:23.057Z,3.95
2023-03-31T07:10:57.632Z,3.45
2023-03-31T07:13:25.742Z,4.20
2023-03-31T07:15:53.655Z,3.80
2023-03-31T07:18:21.650Z,5.55
2023-03-31T07:20:50.530Z,5.32
2023-03-31T07:23:18.815Z,6.57
2023-03-31T07:25:47.156Z,7.03
2023-03-31T07:28:14.657Z,7.53
2023-03-31T07:30:42.722Z,8.07
2023-03-31T07:33:10.429Z,8.55
2023-03-31T07:35:39.659Z,8.43
2023-03-31T07:38:14.355Z,7.55
2023-03-31T07:40:45.268Z,7.93
2023-03-31T07:43:13.485Z,7.88
2023-03-31T07:45:40.955Z,7.43
2023-03-31T07:48:08.377Z,7.80
2023-03-31T07:50:35.547Z,8.65
2023-03-31T07:53:06.498Z,7.55
2023-03-31T07:55:33.634Z,7.28
2023-03-31T07:58:00.944Z,7.75
2023-03-31T08:00:28.178Z,7.13
2023-03-31T08:02:55.553Z,7.20
2023-03-31T08:05:22.892Z,7.63
2023-03-31T08:07:51.385Z,7.43
2023-03-31T08:10:23.633Z,8.02
2023-03-31T08:12:50.866Z,7.22
2023-03-31T08:15:18.683Z,7.22
2023-03-31T08:17:46.139Z,7.03
2023-03-31T08:20:13.498Z,7.25
2023-03-31T08:22:41.226Z,6.18
2023-03-31T08:25:10.127Z,6.47
2023-03-31T08:27:40.118Z,6.25
2023-03-31T08:30:09.821Z,7.05
2023-03-31T08:32:37.680Z,6.25
2023-03-31T08:35:05.732Z,5.45
2023-03-31T08:37:33.531Z,5.82
2023-03-31T08:40:00.835Z,6.13
2023-03-31T08:42:37.751Z,5.75
2023-03-31T08:45:15.205Z,8.18
2023-03-31T08:47:43.682Z,7.47
2023-03-31T08:50:17.574Z,7.63
2023-03-31T08:53:02.059Z,6.47
2023-03-31T08:55:37.456Z,7.40
2023-03-31T08:58:35.771Z,8.15
2023-03-31T09:01:29.444Z,7.85
2023-03-31T09:04:44.066Z,8.15
2023-03-31T09:10:12.196Z,8.63
2023-03-31T09:13:28.489Z,7.10
2023-03-31T09:16:08.775Z,6.85
2023-03-31T09:18:38.807Z,8.05
2023-03-31T09:21:21.108Z,7.30
2023-03-31T09:24:09.469Z,7.93
2023-03-31T09:26:58.558Z,7.80
2023-03-31T09:29:47.916Z,6.72
2023-03-31T09:32:24.712Z,6.13
2023-03-31T09:35:14.249Z,6.10
2023-03-31T09:37:41.460Z,5.80
2023-03-31T09:40:18.580Z,5.35
2023-03-31T09:42:51.271Z,5.20
2023-03-31T09:45:20.280Z,4.60
2023-03-31T09:47:52.125Z,4.45
2023-03-31T09:50:20.814Z,5.25
2023-03-31T09:52:56.527Z,4.60
2023-03-31T09:55:38.246Z,3.72
2023-03-31T09:58:12.686Z,5.18
2023-03-31T10:00:57.336Z,3.88
2023-03-31T10:03:25.054Z,3.88
2023-03-31T10:06:15.789Z,3.85
2023-03-31T10:08:51.639Z,4.60
2023-03-31T10:11:18.835Z,5.22
2023-03-31T10:14:13.300Z,3.70
2023-03-31T10:16:48.083Z,2.88
2023-03-31T10:19:24.093Z,4.60
2023-03-31T10:22:07.008Z,3.10
2023-03-31T10:24:40.943Z,3.25
2023-03-31T10:27:20.029Z,3.63
2023-03-31T10:29:47.506Z,3.20
2023-03-31T10:32:23.970Z,3.08
2023-03-31T10:34:51.541Z,2.92
2023-03-31T10:37:22.536Z,3.05
2023-03-31T10:39:58.878Z,2.47
2023-03-31T10:42:27.726Z,3.08
2023-03-31T10:45:37.929Z,3.20
2023-03-31T10:48:16.885Z,3.03
2023-03-31T10:50:44.526Z,3.35
2023-03-31T10:53:14.509Z,2.88
2023-03-31T10:55:47.462Z,3.45
2023-03-31T10:58:36.238Z,3.10
2023-03-31T11:01:20.867Z,3.08
2023-03-31T11:04:06.755Z,2.60
2023-03-31T11:06:43.310Z,3.20
2023-03-31T11:09:22.569Z,3.28
2023-03-31T11:12:18.083Z,2.90
2023-03-31T11:15:16.418Z,2.17
2023-03-31T11:18:05.221Z,1.90
2023-03-31T11:20:47.518Z,3.15
2023-03-31T11:23:43.720Z,2.70
2023-03-31T11:26:36.356Z,2.50
2023-03-31T11:29:27.518Z,2.28
2023-03-31T11:32:19.222Z,3.35
2023-03-31T11:35:07.989Z,2.88
2023-03-31T11:37:53.482Z,2.53
2023-03-31T11:40:29.619Z,2.80
2023-03-31T11:43:27.820Z,2.63
2023-03-31T11:46:09.911Z,2.83
2023-03-31T11:48:55.764Z,2.20
2023-03-31T11:51:32.690Z,2.35
2023-03-31T11:54:03.531Z,1.95
2023-03-31T11:56:37.643Z,2.58
2023-03-31T11:59:07.393Z,2.22
2023-03-31T12:02:04.395Z,2.85
2023-03-31T12:04:39.946Z,2.17
2023-03-31T12:07:44.145Z,1.98
2023-03-31T12:10:23.948Z,2.42
2023-03-31T12:13:14.242Z,2.30
2023-03-31T12:15:46.605Z,2.63
2023-03-31T12:18:19.019Z,1.85
2023-03-31T12:20:56.589Z,2.00
2023-03-31T12:23:27.999Z,2.00
2023-03-31T12:26:11.390Z,2.00
2023-03-31T12:31:14.200Z,3.33
2023-03-31T12:33:47.330Z,2.05
2023-03-31T12:39:27.442Z,2.25
2023-03-31T12:44:54.060Z,2.97
2023-03-31T12:47:39.772Z,2.25
2023-03-31T12:50:30.103Z,2.70
2023-03-31T12:53:27.297Z,2.92
2023-03-31T12:55:58.709Z,2.17
2023-03-31T12:58:34.780Z,2.15
2023-03-31T13:01:28.621Z,2.70
2023-03-31T13:04:21.611Z,2.97
2023-03-31T13:06:53.792Z,2.30
2023-03-31T13:09:32.937Z,2.40
2023-03-31T13:12:07.897Z,3.03
2023-03-31T13:14:40.355Z,2.70
2023-03-31T13:17:23.293Z,2.50
2023-03-31T13:19:52.230Z,2.67
2023-03-31T13:22:43.449Z,2.20
2023-03-31T13:25:43.784Z,3.13
2023-03-31T13:28:18.710Z,2.20
2023-03-31T13:30:51.450Z,2.53
2023-03-31T13:33:33.175Z,2.47
2023-03-31T13:36:29.979Z,2.00
2023-03-31T13:39:05.811Z,2.58
2023-03-31T13:41:51.513Z,2.67
2023-03-31T13:44:29.342Z,2.45
2023-03-31T13:47:16.649Z,3.42
2023-03-31T13:49:54.464Z,2.35
2023-03-31T13:52:47.905Z,2.50
2023-03-31T13:55:34.546Z,2.38
2023-03-31T13:58:35.305Z,3.03
2023-03-31T14:01:37.188Z,2.95
2023-03-31T14:04:16.469Z,2.92
2023-03-31T14:06:49.964Z,2.20
2023-03-31T14:09:32.263Z,2.35
2023-03-31T14:12:00.481Z,2.40
2023-03-31T14:14:29.644Z,2.90
2023-03-31T14:16:59.259Z,2.30
2023-03-31T14:19:35.834Z,3.95
2023-03-31T14:22:06.012Z,2.47
2023-03-31T14:24:56.275Z,2.30
2023-03-31T14:27:43.640Z,2.78
2023-03-31T14:30:27.194Z,2.08
2023-03-31T14:33:22.435Z,2.30
2023-03-31T14:36:15.910Z,2.70
2023-03-31T14:38:43.538Z,2.20
2023-03-31T14:41:20.112Z,2.60
2023-03-31T14:43:51.202Z,2.60
2023-03-31T14:46:22.103Z,2.25
2023-03-31T14:48:51.446Z,2.00
2023-03-31T14:51:26.360Z,2.08
2023-03-31T14:54:01.644Z,3.10
2023-03-31T14:56:40.077Z,3.88
2023-03-31T14:59:08.150Z,2.45
2023-03-31T15:01:38.291Z,2.15
2023-03-31T15:04:13.017Z,2.72
2023-03-31T15:06:47.871Z,2.42
2023-03-31T15:09:23.715Z,2.35
2023-03-31T15:11:59.611Z,2.60
2023-03-31T15:14:34.127Z,2.08
2023-03-31T15:17:01.985Z,2.75
2023-03-31T15:19:33.027Z,3.03
2023-03-31T15:22:06.130Z,2.20
2023-03-31T15:24:33.406Z,2.20
2023-03-31T15:27:16.334Z,2.65
2023-03-31T15:29:49.586Z,2.08
2023-03-31T15:32:37.344Z,2.53
2023-03-31T15:35:18.831Z,2.60
2023-03-31T15:37:52.088Z,2.65
2023-03-31T15:40:42.961Z,2.47
2023-03-31T15:43:25.832Z,3.75
2023-03-31T15:45:58.312Z,2.40
2023-03-31T15:48:37.756Z,2.03
2023-03-31T15:51:13.854Z,2.33
2023-03-31T15:53:47.057Z,2.72
2023-03-31T15:59:03.235Z,2.28
2023-03-31T16:01:38.737Z,2.85
2023-03-31T16:04:09.580Z,2.70
2023-03-31T16:06:48.612Z,2.40
2023-03-31T16:09:41.815Z,2.45
2023-03-31T16:12:24.474Z,2.95
2023-03-31T16:14:58.050Z,2.37
2023-03-31T16:17:28.312Z,2.72
2023-03-31T16:20:07.340Z,2.70
2023-03-31T16:22:40.596Z,2.30
2023-03-31T16:25:10.815Z,2.88
2023-03-31T16:27:47.800Z,2.50
2023-03-31T16:30:21.090Z,2.40
2023-03-31T16:35:40.173Z,2.55
2023-03-31T16:38:09.805Z,2.78
2023-03-31T16:40:39.342Z,2.35
2023-03-31T16:43:10.152Z,2.75
2023-03-31T16:45:37.481Z,2.40
2023-03-31T16:48:15.507Z,3.80
2023-03-31T16:50:58.465Z,3.25
2023-03-31T16:53:28.396Z,2.97
2023-03-31T16:55:56.146Z,2.17
2023-03-31T16:58:24.558Z,3.20
2023-03-31T17:00:52.231Z,2.72
2023-03-31T17:03:20.472Z,3.72
2023-03-31T17:05:53.104Z,3.97
2023-03-31T17:08:22.803Z,2.65
2023-03-31T17:11:00.642Z,2.67
2023-03-31T17:13:27.883Z,2.70
2023-03-31T17:16:01.293Z,2.65
2023-03-31T17:18:35.945Z,4.30
2023-03-31T17:21:08.052Z,2.75
2023-03-31T17:23:36.483Z,2.60
2023-03-31T17:26:04.356Z,2.80
2023-03-31T17:28:31.752Z,2.72
2023-03-31T17:30:59.177Z,2.55
2023-03-31T17:33:27.809Z,2.35
2023-03-31T17:36:01.059Z,2.78
2023-03-31T17:38:28.796Z,3.17
2023-03-31T17:40:56.016Z,3.22
2023-03-31T17:43:23.283Z,3.10
2023-03-31T17:45:50.393Z,3.05
2023-03-31T17:48:17.615Z,3.95
2023-03-31T17:50:44.813Z,3.17
2023-03-31T17:53:12.033Z,2.72
2023-03-31T17:55:39.268Z,3.17
2023-03-31T17:58:08.445Z,4.13
2023-03-31T18:00:35.808Z,3.00
2023-03-31T18:03:03.173Z,2.58
2023-03-31T18:05:32.365Z,3.05
2023-03-31T18:07:59.647Z,3.00
2023-03-31T18:10:26.764Z,2.58
2023-03-31T18:12:54.967Z,2.35
2023-03-31T18:15:22.681Z,3.38
2023-03-31T18:17:50.615Z,2.70
2023-03-31T18:20:18.126Z,2.70
2023-03-31T18:22:45.376Z,4.43
2023-03-31T18:25:13.041Z,4.60
2023-03-31T18:27:40.271Z,3.78
2023-03-31T18:30:08.463Z,4.53
2023-03-31T18:32:35.866Z,4.57
2023-03-31T18:35:03.081Z,5.05
2023-03-31T18:37:30.265Z,5.00
2023-03-31T18:39:57.678Z,5.40
2023-03-31T18:42:25.707Z,5.78
2023-03-31T18:44:53.252Z,6.38
2023-03-31T18:47:21.361Z,5.18
2023-03-31T18:49:53.296Z,6.22
2023-03-31T18:52:20.654Z,5.53
2023-03-31T18:54:48.128Z,5.18
2023-03-31T18:57:15.545Z,4.97
2023-03-31T18:59:42.760Z,6.65
2023-03-31T19:02:14.061Z,7.25
2023-03-31T19:04:41.605Z,5.97
2023-03-31T19:07:08.712Z,5.53
2023-03-31T19:09:36.267Z,6.32
2023-03-31T19:12:04.347Z,7.07
2023-03-31T19:14:31.557Z,6.85
2023-03-31T19:16:59.505Z,8.15
2023-03-31T19:19:27.114Z,5.60
2023-03-31T19:21:54.555Z,8.82
2023-03-31T19:24:21.793Z,7.93
2023-03-31T19:26:48.986Z,8.05
2023-03-31T19:29:16.600Z,8.77
2023-03-31T19:31:45.090Z,8.50
2023-03-31T19:34:12.364Z,8.48
2023-03-31T19:36:40.138Z,8.68
2023-03-31T19:39:07.307Z,8.82
2023-03-31T19:41:35.802Z,10.10
2023-03-31T19:44:03.036Z,9.65
2023-03-31T19:46:30.592Z,11.20
2023-03-31T19:48:57.834Z,10.98
2023-03-31T19:51:24.963Z,10.10
2023-03-31T19:53:53.261Z,10.95
2023-03-31T19:56:21.317Z,10.77
2023-03-31T19:58:50.156Z,11.40
2023-03-31T20:01:23.559Z,10.43
2023-03-31T20:06:30.782Z,10.80
2023-03-31T20:09:00.333Z,10.20
2023-03-31T20:11:29.404Z,10.20
2023-03-31T20:13:59.091Z,12.32
2023-03-31T20:16:28.115Z,12.63
2023-03-31T20:18:58.709Z,12.55
2023-03-31T20:21:28.556Z,17.65
2023-03-31T20:23:57.064Z,12.38
2023-03-31T20:26:29.439Z,13.00
2023-03-31T20:28:58.857Z,13.43
2023-03-31T20:31:28.352Z,13.75
2023-03-31T20:33:56.399Z,14.05
2023-03-31T20:36:26.039Z,13.15
2023-03-31T20:38:53.840Z,14.18
2023-03-31T20:41:23.882Z,15.00
2023-03-31T20:43:51.974Z,13.43
2023-03-31T20:46:19.853Z,13.73
2023-03-31T20:48:50.986Z,14.65
2023-03-31T20:51:21.489Z,14.40
2023-03-31T20:53:52.699Z,15.68
2023-03-31T20:56:28.220Z,15.88
2023-03-31T20:58:58.857Z,16.65
2023-03-31T21:01:27.886Z,16.25
2023-03-31T21:03:58.959Z,15.32
2023-03-31T21:06:32.618Z,16.40
2023-03-31T21:08:59.942Z,18.85
2023-03-31T21:11:27.434Z,20.48
2023-03-31T21:13:54.813Z,18.95
2023-03-31T21:16:22.364Z,18.15
2023-03-31T21:18:51.708Z,17.60
2023-03-31T21:21:19.444Z,18.73
2023-03-31T21:23:46.895Z,18.65
2023-03-31T21:26:15.767Z,16.42
2023-03-31T21:28:43.705Z,17.20
2023-03-31T21:31:17.948Z,18.15
2023-03-31T21:33:47.136Z,17.45
2023-03-31T21:36:17.997Z,17.00
2023-03-31T21:38:45.596Z,17.17
2023-03-31T21:41:15.692Z,18.00
2023-03-31T21:43:43.710Z,17.05
2023-03-31T21:46:17.390Z,19.13
2023-03-31T21:48:44.984Z,17.80
2023-03-31T21:51:12.115Z,18.33
2023-03-31T21:53:39.273Z,17.85
2023-03-31T21:56:06.477Z,17.77
2023-03-31T21:58:33.694Z,17.33
2023-03-31T22:01:04.035Z,16.63
2023-03-31T22:03:34.248Z,15.80
2023-03-31T22:06:03.593Z,18.70
2023-03-31T22:08:31.692Z,17.08
2023-03-31T22:11:00.467Z,18.65
2023-03-31T22:13:29.083Z,16.55
2023-03-31T22:15:56.388Z,16.38
2023-03-31T22:18:23.732Z,15.95
2023-03-31T22:20:51.497Z,16.10
2023-03-31T22:23:20.797Z,17.50
2023-03-31T22:25:48.498Z,16.63
2023-03-31T22:28:16.692Z,16.50
2023-03-31T22:30:43.997Z,18.80
2023-03-31T22:33:12.115Z,17.42
2023-03-31T22:35:39.343Z,17.77
2023-03-31T22:38:08.664Z,18.27
2023-03-31T22:40:36.303Z,17.13
2023-03-31T22:43:03.824Z,17.85
2023-03-31T22:45:31.386Z,17.90
2023-03-31T22:47:58.746Z,17.60
2023-03-31T22:50:25.921Z,17.65
2023-03-31T22:52:53.106Z,20.83
2023-03-31T22:55:20.666Z,18.13
2023-03-31T22:57:47.875Z,20.00
2023-03-31T23:00:15.364Z,19.85
2023-03-31T23:02:42.603Z,19.38
2023-03-31T23:05:10.018Z,18.90
2023-03-31T23:07:38.545Z,20.50
2023-03-31T23:10:06.360Z,19.13
2023-03-31T23:12:33.530Z,21.65
2023-03-31T23:15:00.790Z,21.42
2023-03-31T23:17:27.904Z,20.67
2023-03-31T23:19:55.386Z,20.42
2023-03-31T23:22:22.539Z,19.35
2023-03-31T23:24:49.720Z,18.45
2023-03-31T23:27:17.635Z,19.73
2023-03-31T23:29:46.016Z,23.05
2023-03-31T23:32:14.162Z,21.17
2023-03-31T23:34:41.875Z,18.02
2023-03-31T23:37:11.211Z,19.17
2023-03-31T23:39:39.483Z,21.13
2023-03-31T23:42:07.978Z,21.92
2023-03-31T23:44:38.661Z,20.77
2023-03-31T23:47:06.156Z,20.63
2023-03-31T23:49:33.523Z,23.70
2023-03-31T23:52:00.927Z,22.30
2023-03-31T23:54:29.007Z,22.50
2023-03-31T23:56:56.342Z,22.50
2023-03-31T23:59:23.514Z,21.80
